Time;durP1;ratioP1;P1;durP2;ratioP2;P2;SDS_P1;SDS_P2;PMS_P1;PMS_P2;Temp;Humidity;BMP_temperature;BMP_pressure;BME280_temperature;BME280_humidity;BME280_pressure;Samples;Min_cycle;Max_cycle;Signal;HPM_P1;HPM_P2
2021/04/04 00:00:15;;;;;;;19.67;17.98;;;;;;;9.74;80.39;100071.75;5031124;28;20083;-73
2021/04/04 00:02:42;;;;;;;4.22;2.30;;;;;;;9.71;80.62;100072.53;5031102;28;20021;-73
2021/04/04 00:05:09;;;;;;;4.65;2.90;;;;;;;9.71;81.08;100066.53;5031214;28;20037;-73
2021/04/04 00:07:35;;;;;;;4.00;2.17;;;;;;;9.77;81.62;100077.03;5028794;28;20045;-73
2021/04/04 00:10:02;;;;;;;3.13;2.15;;;;;;;9.65;81.03;100082.63;5029035;28;20496;-73
2021/04/04 00:12:27;;;;;;;4.03;2.55;;;;;;;9.67;80.68;100095.56;5028828;28;20128;-73
2021/04/04 00:14:53;;;;;;;3.50;2.58;;;;;;;9.69;80.44;100093.94;5028875;28;20043;-73
2021/04/04 00:17:18;;;;;;;2.60;1.90;;;;;;;9.53;81.00;100065.06;5028842;28;20116;-73
2021/04/04 00:19:44;;;;;;;33.53;15.55;;;;;;;9.66;81.30;100097.28;5028667;28;20034;-72
2021/04/04 00:22:10;;;;;;;4.35;2.47;;;;;;;9.59;82.01;100097.03;5029139;28;20029;-73
2021/04/04 00:24:36;;;;;;;72.25;23.63;;;;;;;9.46;81.80;100096.59;5032702;28;20884;-73
2021/04/04 00:27:01;;;;;;;58.08;18.45;;;;;;;9.44;81.60;100110.25;5032908;28;20037;-73
2021/04/04 00:29:27;;;;;;;20.08;8.02;;;;;;;9.26;80.66;100095.00;5013561;28;20079;-73
2021/04/04 00:31:53;;;;;;;3.33;2.03;;;;;;;9.25;82.45;100126.75;5012384;28;20053;-72
2021/04/04 00:34:18;;;;;;;6.68;2.88;;;;;;;9.18;82.07;100130.78;5012598;28;20030;-73
2021/04/04 00:36:44;;;;;;;27.65;11.73;;;;;;;9.26;81.73;100139.69;5012405;28;20569;-73
2021/04/04 00:39:12;;;;;;;14.25;5.45;;;;;;;9.25;81.73;100132.75;5012831;28;20105;-72
2021/04/04 00:41:38;;;;;;;4.30;2.83;;;;;;;9.25;82.50;100135.34;5012455;28;20519;-73
2021/04/04 00:44:05;;;;;;;4.65;2.85;;;;;;;9.20;82.58;100132.59;5012996;28;20041;-73
2021/04/04 00:46:30;;;;;;;9.35;4.32;;;;;;;9.29;82.75;100133.75;5014640;28;20420;-73
2021/04/04 00:48:59;;;;;;;6.07;3.30;;;;;;;9.31;82.71;100143.28;5014770;28;20038;-73
2021/04/04 00:51:25;;;;;;;4.80;2.75;;;;;;;9.26;83.00;100138.78;5014713;28;20109;-73
2021/04/04 00:53:52;;;;;;;3.95;2.45;;;;;;;9.37;82.00;100150.34;5014606;28;20120;-73
2021/04/04 00:56:18;;;;;;;46.35;18.38;;;;;;;9.40;82.35;100150.47;5014465;28;20088;-73
2021/04/04 00:58:43;;;;;;;4.25;2.47;;;;;;;9.46;81.37;100150.72;5013233;28;20034;-73
2021/04/04 01:01:10;;;;;;;6.07;3.50;;;;;;;9.53;81.00;100150.13;5014174;28;20025;-73
2021/04/04 01:03:35;;;;;;;4.47;3.35;;;;;;;9.20;81.23;100096.53;5014453;28;20555;-73
2021/04/04 01:06:06;;;;;;;5.13;2.83;;;;;;;9.65;81.40;100143.63;5014291;28;20056;-73
2021/04/04 01:08:32;;;;;;;4.63;3.40;;;;;;;9.54;81.60;100145.81;5014115;28;20400;-73
2021/04/04 01:10:58;;;;;;;5.57;4.05;;;;;;;9.35;82.65;100142.56;5014257;28;20034;-72
2021/04/04 01:14:01;;;;;;;3.55;2.17;;;;;;;9.29;83.58;100133.75;5014104;28;20488;-73
2021/04/04 01:16:27;;;;;;;2.80;2.00;;;;;;;9.26;83.77;100131.06;5012147;28;20046;-73
2021/04/04 01:19:01;;;;;;;4.22;2.22;;;;;;;9.26;84.35;100128.47;5012006;28;20048;-72
2021/04/04 01:21:38;;;;;;;4.80;3.42;;;;;;;9.33;84.65;100113.31;5011675;28;20038;-73
2021/04/04 01:24:20;;;;;;;4.13;2.00;;;;;;;9.29;84.37;100108.88;5011693;28;20033;-73
2021/04/04 01:26:53;;;;;;;3.63;2.00;;;;;;;9.17;85.43;100111.00;5012111;28;20053;-73
2021/04/04 01:29:22;;;;;;;3.30;2.03;;;;;;;9.26;85.01;100108.78;5011665;28;20408;-73
2021/04/04 01:31:51;;;;;;;3.95;2.05;;;;;;;9.52;83.73;100111.38;5011590;28;20040;-73
2021/04/04 01:34:28;;;;;;;3.33;2.08;;;;;;;9.76;83.93;100126.84;5010297;28;20061;-73
2021/04/04 01:36:59;;;;;;;2.45;1.85;;;;;;;9.76;82.32;100115.63;5011340;28;20058;-73
2021/04/04 01:39:29;;;;;;;3.17;1.70;;;;;;;9.92;82.33;100120.50;5011684;28;20520;-72
2021/04/04 01:41:56;;;;;;;;;;;;;;;10.06;81.71;100113.25;5011814;28;20034;-73
2021/04/04 01:44:23;;;;;;;3.60;1.80;;;;;;;10.22;81.06;100112.03;5011343;28;19920;-73
2021/04/04 01:46:52;;;;;;;15.30;6.90;;;;;;;10.31;80.82;100114.03;5011295;28;20141;-77
2021/04/04 01:49:20;;;;;;;29.05;14.70;;;;;;;10.35;80.27;100114.19;5010934;28;20041;-73
2021/04/04 01:51:46;;;;;;;62.83;29.58;;;;;;;10.38;79.91;100105.72;4994761;28;20037;-73
2021/04/04 01:54:14;;;;;;;16.88;8.73;;;;;;;10.42;79.83;100112.72;5013163;28;20503;-73
2021/04/04 01:56:40;;;;;;;3.83;2.63;;;;;;;10.23;79.75;100110.31;5013347;28;20026;-73
2021/04/04 01:59:07;;;;;;;3.13;2.10;;;;;;;9.96;80.22;100050.16;5013331;28;20444;-73
2021/04/04 02:01:33;;;;;;;9.18;4.50;;;;;;;10.24;80.62;100106.94;5013068;28;20030;-73
2021/04/04 02:04:00;;;;;;;134.70;54.10;;;;;;;10.28;80.09;100114.81;5013515;28;20112;-72
2021/04/04 02:06:26;;;;;;;14.05;6.85;;;;;;;9.95;80.05;100052.69;5013029;28;20025;-73
2021/04/04 02:08:54;;;;;;;12.13;4.95;;;;;;;10.21;79.93;100094.81;5013085;28;20029;-73
2021/04/04 02:11:24;;;;;;;2.78;1.80;;;;;;;10.43;80.37;100106.72;5013062;28;20029;-73
2021/04/04 02:13:51;;;;;;;3.38;1.95;;;;;;;10.20;80.28;100113.69;5012961;28;20030;-74
2021/04/04 02:16:18;;;;;;;6.47;2.13;;;;;;;9.95;82.01;100119.75;5012863;28;20117;-77
2021/04/04 02:18:44;;;;;;;4.68;2.13;;;;;;;9.65;81.84;100117.88;5012958;28;20103;-73
2021/04/04 02:21:12;;;;;;;9.13;2.97;;;;;;;9.82;81.94;100142.53;5012811;28;20029;-73
2021/04/04 02:23:38;;;;;;;27.02;11.95;;;;;;;10.01;81.67;100143.16;5012866;28;20590;-73
2021/04/04 02:26:03;;;;;;;6.93;2.10;;;;;;;10.11;80.82;100140.06;5012852;28;20116;-73
2021/04/04 02:28:30;;;;;;;3.38;1.83;;;;;;;9.96;80.20;100095.72;5013289;28;20105;-72
2021/04/04 02:30:55;;;;;;;2.35;1.50;;;;;;;10.25;78.58;100140.50;5031487;28;20087;-73
2021/04/04 02:33:48;;;;;;;2.47;1.45;;;;;;;10.16;77.90;100146.25;5032740;28;20033;-72
2021/04/04 02:36:15;;;;;;;1.52;1.30;;;;;;;9.97;78.55;100123.22;5032561;28;20036;-73
2021/04/04 02:38:44;;;;;;;1.73;1.40;;;;;;;9.94;78.74;100125.72;5030790;28;20100;-73
2021/04/04 02:41:10;;;;;;;3.88;1.65;;;;;;;9.79;79.31;100126.94;5032229;28;20398;-73
2021/04/04 02:43:42;;;;;;;2.47;1.67;;;;;;;9.51;80.13;100100.22;5032436;28;20117;-73
2021/04/04 02:46:16;;;;;;;2.10;1.73;;;;;;;9.67;79.85;100139.41;5030753;28;20084;-73
2021/04/04 02:48:53;;;;;;;2.45;1.60;;;;;;;9.81;79.31;100145.06;5032072;28;20025;-72
2021/04/04 02:51:24;;;;;;;1.75;1.40;;;;;;;9.88;78.20;100149.56;5030804;28;20028;-73
2021/04/04 02:53:52;;;;;;;2.92;1.60;;;;;;;9.96;78.12;100139.56;5032250;28;20057;-73
2021/04/04 02:56:20;;;;;;;2.28;1.50;;;;;;;9.96;78.06;100142.13;5031755;28;20031;-73
2021/04/04 02:58:54;;;;;;;4.30;1.95;;;;;;;9.55;77.71;100099.47;5031826;28;20061;-73
2021/04/04 03:01:24;;;;;;;2.45;1.77;;;;;;;9.90;78.22;100159.97;5022225;28;20032;-73
2021/04/04 03:03:51;;;;;;;3.22;1.80;;;;;;;9.93;78.36;100155.78;5011970;28;20081;-73
2021/04/04 03:06:19;;;;;;;2.05;1.50;;;;;;;9.95;78.73;100163.56;5012000;28;20125;-73
2021/04/04 03:08:48;;;;;;;2.75;1.65;;;;;;;10.01;79.53;100161.22;5011880;28;20034;-73
2021/04/04 03:11:15;;;;;;;2.05;1.30;;;;;;;9.98;78.87;100159.41;5012018;28;20507;-73
2021/04/04 03:13:48;;;;;;;1.80;1.50;;;;;;;9.92;78.41;100168.63;5011933;28;20073;-73
2021/04/04 03:16:16;;;;;;;1.73;1.30;;;;;;;9.93;78.05;100154.91;5010628;28;20498;-73
2021/04/04 03:18:43;;;;;;;1.50;1.30;;;;;;;9.93;77.41;100154.91;5011797;28;20437;-72
2021/04/04 03:21:11;;;;;;;1.95;1.30;;;;;;;9.92;78.03;100168.63;5011873;28;20029;-73
2021/04/04 03:23:37;;;;;;;2.55;1.20;;;;;;;9.90;78.05;100170.28;5011842;28;20479;-72
2021/04/04 03:26:04;;;;;;;2.55;1.52;;;;;;;9.91;77.26;100172.91;5011956;28;20026;-73
2021/04/04 03:28:30;;;;;;;1.73;1.20;;;;;;;9.87;78.07;100186.53;5012010;28;20448;-73
2021/04/04 03:30:56;;;;;;;1.88;1.40;;;;;;;9.91;78.21;100219.31;5026943;28;20060;-72
2021/04/04 03:33:23;;;;;;;1.33;1.13;;;;;;;9.83;78.05;100228.47;5011657;28;20026;-73
2021/04/04 03:35:51;;;;;;;1.80;1.40;;;;;;;9.76;78.11;100214.50;5010784;28;20022;-73
2021/04/04 03:38:20;;;;;;;3.20;1.50;;;;;;;9.88;78.02;100229.50;5011526;28;20050;-74
2021/04/04 03:40:50;;;;;;;3.20;1.42;;;;;;;9.46;78.18;100168.75;5011345;28;20038;-73
2021/04/04 03:43:18;;;;;;;;;;;;;;;9.80;79.14;100243.84;5027045;28;20468;-72
2021/04/04 03:45:44;;;;;;;1.73;1.45;;;;;;;9.75;79.43;100240.22;5011545;28;19913;-72
2021/04/04 03:48:11;;;;;;;2.08;1.55;;;;;;;9.62;79.73;100241.44;5010376;28;20037;-72
2021/04/04 03:50:40;;;;;;;3.38;1.95;;;;;;;9.29;80.35;100177.56;5011428;28;20032;-72
2021/04/04 03:53:05;;;;;;;2.28;1.55;;;;;;;9.28;81.88;100212.72;5011503;28;20030;-71
2021/04/04 03:55:32;;;;;;;2.85;1.70;;;;;;;8.75;83.24;100153.22;5011503;28;20412;-71
2021/04/04 03:57:58;;;;;;;2.83;2.13;;;;;;;8.73;84.74;100208.88;5027885;28;20096;-72
2021/04/04 04:00:26;;;;;;;3.53;2.33;;;;;;;8.77;85.14;100205.59;5015501;28;20046;-71
2021/04/04 04:02:52;;;;;;;4.93;2.28;;;;;;;8.96;84.83;100221.78;5015217;28;20030;-71
2021/04/04 04:05:21;;;;;;;2.88;2.00;;;;;;;9.04;84.54;100222.97;5015669;28;20036;-72
2021/04/04 04:07:48;;;;;;;3.13;2.13;;;;;;;9.20;84.64;100240.78;5014181;28;20037;-71
2021/04/04 04:10:16;;;;;;;3.60;1.90;;;;;;;9.34;83.93;100237.84;5015042;28;20033;-71
2021/04/04 04:12:44;;;;;;;4.55;2.05;;;;;;;9.32;83.61;100221.44;5015105;28;20044;-72
2021/04/04 04:15:14;;;;;;;3.03;2.08;;;;;;;9.44;83.16;100231.34;5015338;28;20091;-71
2021/04/04 04:17:40;;;;;;;2.28;1.80;;;;;;;9.50;83.02;100229.00;5013888;28;20022;-72
2021/04/04 04:20:08;;;;;;;2.22;1.55;;;;;;;9.64;81.65;100230.38;5015165;28;20125;-72
2021/04/04 04:22:34;;;;;;;3.20;1.60;;;;;;;9.49;81.21;100186.00;5014298;28;20420;-72
2021/04/04 04:25:00;;;;;;;3.08;1.80;;;;;;;9.69;80.88;100227.97;5015093;28;20030;-71
2021/04/04 04:27:26;;;;;;;2.22;1.30;;;;;;;9.74;80.49;100225.56;5015096;28;20484;-71
2021/04/04 04:29:53;;;;;;;36.85;16.75;;;;;;;9.88;80.12;100230.41;5015157;28;20028;-71
2021/04/04 04:32:20;;;;;;;48.92;19.88;;;;;;;9.93;79.81;100229.69;5014809;28;20495;-71
2021/04/04 04:34:49;;;;;;;16.02;8.95;;;;;;;9.94;79.44;100229.72;5014876;28;20472;-71
2021/04/04 04:37:16;;;;;;;42.38;19.10;;;;;;;9.93;79.36;100238.31;5014967;28;20480;-71
2021/04/04 04:39:42;;;;;;;16.50;7.88;;;;;;;9.92;79.62;100244.28;5014962;28;20037;-71
2021/04/04 04:42:12;;;;;;;5.75;3.63;;;;;;;9.88;79.79;100244.97;5014649;28;20510;-71
2021/04/04 04:44:39;;;;;;;;;;;;;;;9.71;81.13;100253.00;5015423;28;20087;-71
2021/04/04 04:47:05;;;;;;;6.93;4.50;;;;;;;9.17;81.89;100256.13;5013779;28;19978;-71
2021/04/04 04:49:31;;;;;;;6.55;2.40;;;;;;;8.79;82.94;100183.38;5027799;28;20487;-71
2021/04/04 04:51:57;;;;;;;4.03;1.88;;;;;;;8.89;82.86;100176.91;5034281;28;20068;-72
2021/04/04 04:54:23;;;;;;;41.67;17.70;;;;;;;9.20;84.14;100258.78;5034158;28;20119;-71
2021/04/04 04:56:49;;;;;;;4.63;3.10;;;;;;;9.26;83.31;100259.84;5034535;28;20026;-71
2021/04/04 04:59:15;;;;;;;5.47;2.90;;;;;;;9.29;84.04;100260.84;5034256;28;20041;-72
2021/04/04 05:01:43;;;;;;;6.55;3.80;;;;;;;9.10;83.82;100220.63;5034029;28;20083;-71
2021/04/04 05:04:10;;;;;;;19.88;11.75;;;;;;;9.40;84.02;100271.59;5032753;28;20034;-71
2021/04/04 05:06:36;;;;;;;11.75;8.27;;;;;;;9.29;84.93;100281.47;5034260;28;20450;-71
2021/04/04 05:09:05;;;;;;;8.50;6.53;;;;;;;9.10;85.87;100286.69;5033513;28;20079;-71
2021/04/04 05:11:33;;;;;;;14.05;9.70;;;;;;;8.63;87.04;100287.41;5032633;28;20022;-71
2021/04/04 05:13:59;;;;;;;10.52;7.60;;;;;;;8.69;87.72;100297.94;5033774;28;20108;-72
2021/04/04 05:16:29;;;;;;;8.93;6.55;;;;;;;8.86;87.87;100298.66;5033784;28;20109;-71
2021/04/04 05:18:54;;;;;;;6.55;3.92;;;;;;;8.55;87.47;100248.50;5033819;28;20029;-71
2021/04/04 05:21:26;;;;;;;6.80;4.03;;;;;;;8.76;87.80;100300.78;5033669;28;20022;-71
2021/04/04 05:24:06;;;;;;;6.82;4.13;;;;;;;8.55;88.50;100257.91;5033779;28;20021;-70
2021/04/04 05:26:37;;;;;;;22.30;13.73;;;;;;;8.96;88.72;100304.16;5033784;28;20116;-71
2021/04/04 05:29:08;;;;;;;8.52;5.70;;;;;;;8.90;88.22;100305.69;5033631;28;20041;-71
2021/04/04 05:31:34;;;;;;;8.20;5.00;;;;;;;8.93;86.82;100301.50;5032329;28;20061;-71
2021/04/04 05:34:00;;;;;;;6.03;4.20;;;;;;;8.95;87.36;100313.59;5033621;28;20059;-71
2021/04/04 05:36:26;;;;;;;16.23;10.27;;;;;;;8.87;85.42;100314.97;5033517;28;20029;-73
2021/04/04 05:38:59;;;;;;;36.45;15.18;;;;;;;8.70;85.71;100317.72;5033662;28;20034;-70
2021/04/04 05:41:27;;;;;;;14.23;7.55;;;;;;;8.85;86.06;100325.22;5033077;28;20029;-70
2021/04/04 05:43:57;;;;;;;13.13;7.43;;;;;;;9.03;86.47;100324.22;5033167;28;20033;-71
2021/04/04 05:46:29;;;;;;;12.45;8.32;;;;;;;9.13;85.81;100320.31;5033180;28;20036;-71
2021/04/04 05:49:14;;;;;;;31.33;13.80;;;;;;;9.15;84.90;100329.84;5030316;28;20034;-72
2021/04/04 05:51:50;;;;;;;273.52;103.35;;;;;;;9.01;82.74;100334.44;5029379;28;20034;-71
2021/04/04 05:54:33;;;;;;;34.10;15.77;;;;;;;9.03;83.23;100329.34;5029749;28;20548;-70
2021/04/04 05:57:04;;;;;;;8.73;6.38;;;;;;;9.06;84.31;100332.06;5024035;28;20032;-71
2021/04/04 05:59:36;;;;;;;12.75;9.07;;;;;;;8.86;82.96;100334.69;5024223;28;20036;-71
2021/04/04 06:02:01;;;;;;;11.05;8.00;;;;;;;8.93;82.47;100337.53;5023531;28;20038;-70
2021/04/04 06:04:43;;;;;;;11.75;8.57;;;;;;;9.06;81.09;100330.38;5033075;28;20025;-70
2021/04/04 06:07:25;;;;;;;78.63;34.65;;;;;;;8.99;78.66;100335.22;5025102;28;20030;-71
2021/04/04 06:10:03;;;;;;;15.85;12.27;;;;;;;8.93;79.90;100337.53;5023888;28;20056;-70
2021/04/04 06:13:03;;;;;;;11.35;8.82;;;;;;;8.99;80.52;100333.50;5023280;28;20134;-71
2021/04/04 06:15:56;;;;;;;10.82;7.53;;;;;;;9.09;78.64;100323.59;5024138;28;20112;-71
2021/04/04 06:19:04;;;;;;;12.93;10.82;;;;;;;9.22;81.83;100333.56;5023353;28;20037;-70
2021/04/04 06:22:00;;;;;;;12.40;9.30;;;;;;;9.05;79.12;100282.25;5023319;28;20025;-71
2021/04/04 06:24:56;;;;;;;12.90;9.45;;;;;;;9.44;79.75;100340.44;5023279;28;20033;-73
2021/04/04 06:27:24;;;;;;;13.10;8.93;;;;;;;9.50;79.53;100347.53;5023399;28;20431;-72
2021/04/04 06:30:01;;;;;;;15.77;10.35;;;;;;;9.52;79.94;100340.72;5023189;28;20022;-70
2021/04/04 06:32:36;;;;;;;13.45;10.45;;;;;;;9.65;80.09;100349.84;5023232;28;20087;-71
2021/04/04 06:35:09;;;;;;;12.80;9.18;;;;;;;9.61;79.40;100343.69;5021304;28;20038;-71
2021/04/04 06:38:06;;;;;;;13.55;10.27;;;;;;;9.83;79.72;100355.72;5023824;28;20045;-74
2021/04/04 06:40:42;;;;;;;19.88;14.75;;;;;;;9.54;78.76;100311.66;5023056;28;20029;-71
2021/04/04 06:43:19;;;;;;;18.40;14.45;;;;;;;9.85;79.29;100366.94;5023268;28;20053;-71
2021/04/04 06:46:06;;;;;;;52.28;28.35;;;;;;;9.85;79.78;100369.50;5023184;28;20103;-71
2021/04/04 06:48:55;;;;;;;31.10;19.27;;;;;;;9.87;78.90;100373.03;5012266;28;20048;-71
2021/04/04 06:51:24;;;;;;;27.92;16.92;;;;;;;9.84;80.62;100357.47;5012933;28;20033;-72
2021/04/04 06:53:52;;;;;;;16.30;11.32;;;;;;;9.97;80.46;100376.84;5012519;28;20124;-71
2021/04/04 06:56:29;;;;;;;13.45;9.52;;;;;;;9.98;78.77;100386.34;5012440;28;20022;-72
2021/04/04 06:59:07;;;;;;;12.77;10.35;;;;;;;9.93;79.05;100382.72;5012164;28;20029;-71
2021/04/04 07:01:41;;;;;;;13.38;9.75;;;;;;;9.87;79.68;100370.47;5012135;28;20443;-71
2021/04/04 07:04:22;;;;;;;22.35;14.30;;;;;;;9.76;80.08;100339.91;5010895;28;20037;-70
2021/04/04 07:07:16;;;;;;;27.60;17.02;;;;;;;9.93;78.69;100384.41;5019910;28;20545;-71
2021/04/04 07:10:02;;;;;;;18.98;13.65;;;;;;;9.79;78.38;100387.31;5022659;28;20026;-71
2021/04/04 07:12:46;;;;;;;32.53;19.05;;;;;;;9.67;77.20;100384.28;5022430;28;20013;-72
2021/04/04 07:15:35;;;;;;;17.80;13.88;;;;;;;9.58;78.44;100395.09;5022483;28;20391;-71
2021/04/04 07:18:48;;;;;;;16.20;14.48;;;;;;;9.59;78.86;100396.00;5022322;28;20029;-71
2021/04/04 07:21:41;;;;;;;19.52;15.23;;;;;;;9.60;78.58;100402.91;5001448;28;20037;-72
2021/04/04 07:24:44;;;;;;;18.95;15.18;;;;;;;9.53;78.23;100406.94;5006746;28;20109;-72
2021/04/04 07:27:14;;;;;;;16.85;12.65;;;;;;;9.60;79.97;100421.81;5002111;28;20038;-72
2021/04/04 07:29:58;;;;;;;19.90;15.25;;;;;;;9.76;79.39;100418.16;5000129;28;20546;-72
2021/04/04 07:32:47;;;;;;;20.75;15.68;;;;;;;9.67;76.27;100416.09;5008054;28;20038;-71
2021/04/04 07:35:18;;;;;;;20.85;16.05;;;;;;;9.59;77.74;100422.63;4993264;28;20120;-71
2021/04/04 07:37:49;;;;;;;25.23;18.38;;;;;;;9.44;77.62;100419.44;5006442;28;20042;-71
2021/04/04 07:40:38;;;;;;;28.05;19.92;;;;;;;9.33;78.66;100434.47;5002567;28;20030;-72
2021/04/04 07:43:10;;;;;;;27.55;19.27;;;;;;;9.23;79.04;100433.19;4963031;28;20464;-71
2021/04/04 07:45:44;;;;;;;25.52;18.92;;;;;;;9.30;80.11;100431.78;4970515;28;20491;-70
2021/04/04 07:48:42;;;;;;;40.53;26.25;;;;;;;9.36;78.18;100435.47;4970424;28;20035;-72
2021/04/04 07:51:17;;;;;;;61.58;32.15;;;;;;;9.28;78.83;100431.69;4951365;29;20509;-73
2021/04/04 07:53:53;;;;;;;74.22;35.47;;;;;;;9.46;81.63;100441.88;4950773;29;20043;-72
2021/04/04 07:56:33;;;;;;;38.38;24.58;;;;;;;9.54;78.93;100442.19;4948484;28;20050;-73
2021/04/04 07:59:29;;;;;;;77.88;40.10;;;;;;;9.60;79.25;100439.88;4949531;28;20039;-73
2021/04/04 08:02:11;;;;;;;32.95;21.92;;;;;;;9.54;80.26;100437.94;4950102;28;20039;-70
2021/04/04 08:04:52;;;;;;;112.97;50.60;;;;;;;9.51;77.69;100447.25;4950253;28;20505;-72
2021/04/04 08:07:28;;;;;;;67.15;36.70;;;;;;;9.41;78.92;100448.56;4948527;28;20079;-73
2021/04/04 08:10:13;;;;;;;19.70;14.77;;;;;;;9.32;79.89;100443.91;4949475;28;20099;-71
2021/04/04 08:12:55;;;;;;;29.92;18.50;;;;;;;9.15;79.23;100414.84;4947792;28;20116;-71
2021/04/04 08:15:25;;;;;;;72.47;37.10;;;;;;;9.32;79.71;100450.72;4949591;28;20043;-71
2021/04/04 08:17:51;;;;;;;68.40;37.47;;;;;;;9.22;79.32;100441.72;4949593;28;20035;-74
2021/04/04 08:20:44;;;;;;;28.02;18.65;;;;;;;9.29;81.94;100442.91;4965696;28;20046;-73
2021/04/04 08:23:47;;;;;;;51.83;27.98;;;;;;;9.31;80.33;100448.97;4973721;28;20034;-72
2021/04/04 08:26:24;;;;;;;26.13;17.98;;;;;;;9.17;82.18;100438.09;4969636;28;20037;-73
2021/04/04 08:28:57;;;;;;;16.58;13.52;;;;;;;9.16;82.23;100426.91;5004886;28;20038;-73
2021/04/04 08:31:58;;;;;;;26.95;16.63;;;;;;;9.29;79.52;100473.81;5014793;28;20037;-71
2021/04/04 08:34:28;;;;;;;14.02;11.73;;;;;;;8.74;78.48;100391.69;5007843;28;20041;-72
2021/04/04 08:37:02;;;;;;;13.70;11.18;;;;;;;8.99;79.98;100445.94;5010782;28;20115;-73
2021/04/04 08:39:31;;;;;;;14.40;11.50;;;;;;;9.12;80.66;100465.34;5007959;28;20037;-70
2021/04/04 08:42:00;;;;;;;15.20;12.60;;;;;;;9.16;83.16;100462.09;5007991;28;20117;-71
2021/04/04 08:44:32;;;;;;;16.77;13.95;;;;;;;8.96;82.89;100402.00;5010277;28;20034;-71
2021/04/04 08:47:13;;;;;;;13.55;11.80;;;;;;;9.53;80.51;100471.34;5011767;28;20384;-74
2021/04/04 08:49:39;;;;;;;13.88;11.13;;;;;;;9.37;79.83;100433.75;5011798;28;20132;-71
2021/04/04 08:52:17;;;;;;;14.90;11.55;;;;;;;9.66;82.21;100459.88;5002799;28;20532;-71
2021/04/04 08:54:51;;;;;;;14.98;11.48;;;;;;;9.79;80.88;100464.69;4995192;28;20068;-71
2021/04/04 08:57:22;;;;;;;14.73;11.35;;;;;;;9.97;80.19;100450.75;4994069;28;20030;-73
2021/04/04 08:59:52;;;;;;;20.02;11.27;;;;;;;10.04;80.47;100448.50;4994723;28;20148;-70
2021/04/04 09:02:18;;;;;;;18.05;12.50;;;;;;;10.18;80.46;100456.75;4994848;28;20042;-73
2021/04/04 09:04:47;;;;;;;13.88;10.15;;;;;;;9.91;79.63;100414.44;4993105;28;20571;-74
2021/04/04 09:07:15;;;;;;;26.88;22.17;;;;;;;9.83;79.34;100406.38;4996041;28;20073;-72
2021/04/04 09:09:46;;;;;;;15.73;13.85;;;;;;;9.94;78.75;100454.09;4995170;28;20035;-73
2021/04/04 09:12:12;;;;;;;12.45;9.32;;;;;;;9.52;78.20;100443.81;5014019;28;20036;-71
2021/04/04 09:14:41;;;;;;;16.08;11.25;;;;;;;9.43;79.01;100461.50;5012946;28;20080;-71
2021/04/04 09:17:09;;;;;;;12.83;8.43;;;;;;;9.45;79.29;100465.91;5051307;28;20548;-71
2021/04/04 09:19:40;;;;;;;19.05;9.20;;;;;;;9.61;79.68;100475.13;5051683;28;20680;-72
2021/04/04 09:22:17;;;;;;;11.02;7.95;;;;;;;9.50;78.41;100441.19;5056745;28;20079;-70
2021/04/04 09:24:56;;;;;;;12.25;7.97;;;;;;;9.73;78.43;100467.00;5064221;28;20072;-72
2021/04/04 09:27:27;;;;;;;9.35;7.60;;;;;;;9.41;77.21;100427.94;5064627;28;20037;-71
2021/04/04 09:29:56;;;;;;;9.98;7.28;;;;;;;9.42;76.05;100423.66;5064324;28;20110;-72
2021/04/04 09:32:27;;;;;;;12.00;8.60;;;;;;;9.57;77.09;100467.22;5053878;28;20442;-71
2021/04/04 09:34:54;;;;;;;14.38;8.93;;;;;;;9.63;77.70;100450.31;5071019;28;20491;-71
2021/04/04 09:37:23;;;;;;;12.18;7.68;;;;;;;9.76;76.93;100463.66;5053975;28;20118;-70
2021/04/04 09:39:50;;;;;;;13.70;9.60;;;;;;;9.72;76.70;100465.28;5070266;28;20422;-72
2021/04/04 09:42:16;;;;;;;10.05;8.15;;;;;;;9.84;76.74;100457.13;5054104;28;20510;-75
2021/04/04 09:44:42;;;;;;;12.32;8.90;;;;;;;9.78;75.85;100444.91;5062070;28;20093;-81
2021/04/04 09:47:07;;;;;;;11.38;9.15;;;;;;;9.77;76.16;100440.56;5049429;28;20056;-77
2021/04/04 09:49:46;;;;;;;16.50;10.82;;;;;;;9.94;76.34;100442.91;5023279;28;20033;-80
2021/04/04 09:52:27;;;;;;;15.75;12.48;;;;;;;10.11;77.73;100439.28;5032948;28;20041;-77
2021/04/04 09:54:56;;;;;;;30.52;15.50;;;;;;;10.17;78.45;100426.59;5030717;28;20021;-78
2021/04/04 09:57:22;;;;;;;16.88;11.07;;;;;;;10.24;76.85;100419.97;5022989;28;20030;-81
2021/04/04 09:59:47;;;;;;;12.68;10.20;;;;;;;10.29;77.81;100420.16;5031994;28;20036;-75
2021/04/04 10:02:13;;;;;;;16.50;9.05;;;;;;;9.98;75.86;100390.63;5032721;28;20492;-79
2021/04/04 10:04:44;;;;;;;20.42;8.88;;;;;;;10.17;75.99;100410.25;5029244;28;20488;-78
2021/04/04 10:07:12;;;;;;;12.50;8.38;;;;;;;10.04;75.60;100409.81;5014553;28;20083;-78
2021/04/04 10:09:38;;;;;;;10.23;7.20;;;;;;;9.71;75.75;100353.53;5013217;28;20455;-80
2021/04/04 10:12:05;;;;;;;10.65;6.65;;;;;;;9.91;73.60;100410.16;5027353;28;20030;-80
2021/04/04 10:14:31;;;;;;;7.90;6.45;;;;;;;9.62;73.72;100406.41;5013239;28;20507;-78
2021/04/04 10:17:11;;;;;;;10.68;9.57;;;;;;;9.67;75.62;100433.25;5011989;28;20026;-79
2021/04/04 10:19:57;;;;;;;8.98;7.13;;;;;;;9.52;75.35;100438.66;5012114;28;20034;-79
2021/04/04 10:22:25;;;;;;;9.50;8.50;;;;;;;9.37;75.47;100441.50;5014246;28;20057;-78
2021/04/04 10:24:51;;;;;;;9.43;8.27;;;;;;;8.99;76.38;100378.97;5031317;28;20026;-78
2021/04/04 10:27:28;;;;;;;8.88;7.00;;;;;;;9.19;74.93;100424.47;5029354;28;20034;-76
2021/04/04 10:30:17;;;;;;;9.07;6.60;;;;;;;9.05;75.98;100433.31;5024845;28;20029;-78
2021/04/04 10:32:43;;;;;;;9.73;7.75;;;;;;;9.13;81.28;100443.94;5017810;28;20030;-78
2021/04/04 10:35:11;;;;;;;9.50;7.28;;;;;;;9.32;78.58;100441.31;5017118;28;20484;-75
2021/04/04 10:37:39;;;;;;;15.10;7.32;;;;;;;9.19;78.40;100444.19;5022492;28;20080;-79
2021/04/04 10:40:13;;;;;;;10.85;6.72;;;;;;;9.32;77.71;100473.91;5010733;28;20472;-74
2021/04/04 10:42:40;;;;;;;11.68;7.30;;;;;;;9.27;78.55;100483.16;5013607;28;20136;-77
2021/04/04 10:45:12;;;;;;;9.57;7.28;;;;;;;9.13;80.25;100488.59;5014072;28;20071;-78
2021/04/04 10:47:38;;;;;;;11.85;9.98;;;;;;;8.98;81.15;100475.06;5015473;28;20037;-74
2021/04/04 10:50:09;;;;;;;9.88;8.07;;;;;;;8.92;81.42;100452.50;5013478;28;20030;-78
2021/04/04 10:52:37;;;;;;;11.43;8.20;;;;;;;9.01;81.82;100440.03;5021207;28;20024;-76
2021/04/04 10:55:04;;;;;;;13.68;12.05;;;;;;;9.19;81.19;100463.09;5031084;28;20044;-80
2021/04/04 10:57:31;;;;;;;11.00;8.45;;;;;;;9.29;80.36;100458.34;5031324;28;20033;-74
2021/04/04 10:59:57;;;;;;;11.57;8.43;;;;;;;8.95;79.93;100403.72;5016771;28;20071;-74
2021/04/04 11:02:24;;;;;;;10.07;8.15;;;;;;;9.21;80.37;100443.44;5011813;28;20029;-74
2021/04/04 11:04:50;;;;;;;11.45;8.57;;;;;;;9.27;80.04;100454.81;5026900;28;20029;-73
2021/04/04 11:07:19;;;;;;;10.52;8.55;;;;;;;9.18;79.69;100455.31;5011385;28;20076;-75
2021/04/04 11:09:46;;;;;;;10.15;8.15;;;;;;;9.20;79.77;100444.25;5010186;28;20021;-74
2021/04/04 11:12:13;;;;;;;12.57;8.93;;;;;;;9.12;80.42;100444.75;5015619;28;20033;-73
2021/04/04 12:07:28;;;;;;;7.65;5.60;;;;;;;8.50;82.08;100386.34;4990292;28;20053;-73
2021/04/04 12:09:58;;;;;;;8.77;6.18;;;;;;;8.63;79.76;100392.03;5028138;28;20033;-73
2021/04/04 12:12:23;;;;;;;;;;;;;;;8.63;77.13;100387.75;5011064;28;20029;-71
2021/04/04 12:14:51;;;;;;;7.30;6.13;;;;;;;8.71;78.33;100388.09;5009452;28;19920;-72
2021/04/04 12:17:18;;;;;;;13.43;6.30;;;;;;;8.78;79.03;100384.97;5011670;28;23185;-71
2021/04/04 12:19:45;;;;;;;20.98;6.68;;;;;;;8.64;80.31;100386.09;5018099;28;20026;-73
2021/04/04 12:22:16;;;;;;;8.63;6.50;;;;;;;8.08;80.57;100316.75;5017962;28;20034;-74
2021/04/04 12:24:52;;;;;;;19.00;9.57;;;;;;;8.28;81.81;100383.63;5014962;28;20069;-72
2021/04/04 12:27:23;;;;;;;8.57;6.28;;;;;;;8.23;82.46;100368.84;5015296;28;20026;-75
2021/04/04 12:29:51;;;;;;;9.40;7.90;;;;;;;8.16;82.97;100366.84;5014287;28;20021;-74
2021/04/04 12:32:31;;;;;;;11.60;8.50;;;;;;;8.05;82.50;100362.88;5016176;28;20095;-71
2021/04/04 12:35:00;;;;;;;14.10;10.35;;;;;;;8.00;82.88;100342.13;5017641;28;20037;-73
2021/04/04 12:37:28;;;;;;;10.77;9.00;;;;;;;8.19;82.68;100356.66;5013939;28;20460;-76
2021/04/04 12:39:55;;;;;;;9.52;7.82;;;;;;;8.08;82.08;100353.59;5017135;28;20129;-73